Mt Bomar Mars — 9HCM9 — position and weather

sailwx.info

Track history (hours):
 
Tides and Currents Weather Stations Pressure Air Temp Water Temp Dewpoint Dewpoint Depression Visibility Wind Speed Wind Dir Waves Ship Positions

Mt Bomar Mars

Last reported at 2014-Jul-28 05:25 UTC. Time now 2014-Jul-28 06:26 UTC.
Position N 57°56' E 011°22'.

Length 107 m; draft 5.4 m.

Type: Tanker. MMSI: 256784000.

Date/timePositionNaut miles runAvg speedWind from/ knotsBaromVisibWave heightAir tempDewpointWater temp
2014-Jul-28 05:25N 57°56' E 011°22'0 0.0
2014-Jul-28 04:25N 57°56' E 011°22'0 0.0
2014-Jul-28 03:25N 57°56' E 011°22'0 0.0
2014-Jul-28 02:28N 57°56' E 011°22'0 0.0
2014-Jul-28 01:25N 57°56' E 011°22'0 0.0
2014-Jul-28 00:31N 57°56' E 011°22'0 0.0
2014-Jul-27 23:31N 57°56' E 011°22'1 0.6
2014-Jul-27 22:33N 57°55' E 011°22'1211.8
2014-Jul-27 21:33N 57°44' E 011°24'1111.1
2014-Jul-27 20:34N 57°33' E 011°25'1010.2
2014-Jul-27 19:33N 57°23' E 011°29'9 9.5
2014-Jul-27 18:33N 57°14' E 011°35'9 9.1
2014-Jul-27 17:33N 57°05' E 011°41'9 9.1
2014-Jul-27 16:31N 56°56' E 011°46'9 9.6
2014-Jul-27 15:33N 56°47' E 011°52'9 9.3
2014-Jul-27 14:33N 56°39' E 011°46'10 9.9
2014-Jul-27 13:32N 56°30' E 011°37'9 9.7
2014-Jul-27 12:33N 56°22' E 011°28'10 9.9
2014-Jul-27 11:31N 56°13' E 011°19'7 7.5
2014-Jul-27 10:33N 56°07' E 011°11'10 9.6
2014-Jul-27 09:33N 55°59' E 011°02'1110.2
2014-Jul-27 08:30N 55°50' E 010°50'45 2.4
2014-Jul-26 13:12N 55°20' E 009°50'710.4
2014-Jul-26 12:34N 55°13' E 009°48'1111.4
2014-Jul-26 11:33N 55°03' E 009°54'1212.0
2014-Jul-26 10:33N 54°54' E 010°09'49 6.1
2014-Jul-26 02:30N 54°11' E 009°29'8 7.7
2014-Jul-26 01:30N 54°05' E 009°19'8 8.0
2014-Jul-26 00:33N 53°58' E 009°16'5 5.5
2014-Jul-25 23:34N 53°54' E 009°10'1 0.8
2014-Jul-25 22:33N 53°54' E 009°09'2 2.0
2014-Jul-25 21:33N 53°53' E 009°05'10 9.6
2014-Jul-25 20:34N 53°50' E 008°50'1312.7
2014-Jul-25 19:33N 53°58' E 008°32'1312.7
2014-Jul-25 18:33N 53°59' E 008°11'1212.5
2014-Jul-25 17:33N 53°57' E 007°50'1311.3
2014-Jul-25 16:24N 53°54' E 007°29'2010.6
2014-Jul-25 14:30N 53°49' E 006°55'1010.1
2014-Jul-25 13:33N 53°47' E 006°40'1010.1
2014-Jul-25 12:33N 53°44' E 006°23'1110.5
2014-Jul-25 11:33N 53°41' E 006°06'1110.8
2014-Jul-25 10:33N 53°38' E 005°49'1110.9
2014-Jul-25 09:33N 53°34' E 005°31'1111.5
2014-Jul-25 08:33N 53°31' E 005°13'1211.9
2014-Jul-25 07:33N 53°26' E 004°55'2210.6
2014-Jul-25 05:31N 53°10' E 004°32'1111.5
2014-Jul-25 04:33N 53°00' E 004°22'1211.8
2014-Jul-25 03:33N 52°50' E 004°13'1211.9
2014-Jul-25 02:33N 52°40' E 004°03'1211.8
2014-Jul-25 01:33N 52°29' E 003°55'1211.8
2014-Jul-25 00:33N 52°17' E 003°52'1111.1
2014-Jul-24 23:33N 52°06' E 003°54'9 8.8
2014-Jul-24 22:33N 51°59' E 004°03'6 5.6
2014-Jul-24 21:32N 51°56' E 004°11'0 0.0
2014-Jul-24 15:14N 51°56' E 004°11'0 0.0
2014-Jul-24 14:05N 51°56' E 004°11'0 0.0
2014-Jul-24 13:32N 51°56' E 004°11'0 0.0
2014-Jul-24 11:32N 51°56' E 004°11'0 0.0
2014-Jul-24 10:23N 51°56' E 004°11'0 0.0
2014-Jul-24 09:05N 51°56' E 004°11'0 0.0
2014-Jul-24 06:14N 51°56' E 004°11'0 0.0
2014-Jul-24 03:20N 51°56' E 004°11'0 0.0
2014-Jul-24 02:08N 51°56' E 004°11'0 0.1
2014-Jul-23 21:17N 51°57' E 004°11'0 0.0
2014-Jul-23 20:32N 51°57' E 004°11'0 0.0
2014-Jul-23 19:32N 51°57' E 004°11'0 0.0
2014-Jul-23 18:29N 51°57' E 004°11'0 0.0
2014-Jul-23 17:32N 51°57' E 004°11'0 0.0
2014-Jul-23 16:32N 51°57' E 004°11'0 0.0
2014-Jul-23 15:29N 51°57' E 004°11'0 0.0
2014-Jul-23 14:32N 51°57' E 004°11'0 0.0
2014-Jul-23 13:32N 51°57' E 004°11'0 0.0
2014-Jul-23 12:32N 51°57' E 004°11'0 0.0
2014-Jul-23 11:32N 51°57' E 004°11'0 0.0
2014-Jul-23 10:23N 51°57' E 004°11'0 0.0
2014-Jul-23 09:32N 51°57' E 004°11'0 0.0
2014-Jul-23 08:32N 51°57' E 004°11'0 0.0
2014-Jul-23 07:32N 51°57' E 004°11'0 0.0
2014-Jul-23 06:29N 51°57' E 004°11'0 0.0
2014-Jul-23 05:32N 51°57' E 004°11'0 0.0
2014-Jul-23 04:29N 51°57' E 004°11'0 0.0
2014-Jul-23 03:32N 51°57' E 004°11'0 0.0
2014-Jul-23 02:32N 51°57' E 004°11'0 0.0
2014-Jul-23 01:32N 51°57' E 004°11'0 0.0
2014-Jul-23 00:32N 51°57' E 004°11'0 0.0
2014-Jul-22 23:32N 51°57' E 004°11'0 0.0
2014-Jul-22 22:32N 51°57' E 004°11'0 0.0
2014-Jul-22 21:32N 51°57' E 004°11'0 0.0
2014-Jul-22 20:29N 51°57' E 004°11'0 0.0
2014-Jul-22 19:29N 51°57' E 004°11'0 0.0
2014-Jul-22 18:32N 51°57' E 004°11'0 0.0
2014-Jul-22 17:26N 51°57' E 004°11'0 0.0
2014-Jul-22 16:32N 51°57' E 004°11'0 0.0
2014-Jul-22 15:29N 51°57' E 004°11'0 0.0
2014-Jul-22 14:32N 51°57' E 004°11'0 0.0
2014-Jul-22 13:20N 51°57' E 004°11'0 0.0
2014-Jul-22 12:32N 51°57' E 004°11'0 0.0
2014-Jul-22 11:29N 51°57' E 004°11'0 0.0
2014-Jul-22 10:32N 51°57' E 004°11'0 0.0
2014-Jul-22 09:29N 51°57' E 004°11'0 0.0
2014-Jul-22 08:32N 51°57' E 004°11'0 0.0
2014-Jul-22 07:29N 51°57' E 004°11'0 0.0
2014-Jul-22 06:32N 51°57' E 004°11'0 0.0
2014-Jul-22 05:32N 51°57' E 004°11'0 0.0
2014-Jul-22 04:29N 51°57' E 004°11'0 0.0
2014-Jul-22 03:32N 51°57' E 004°11'0 0.0
2014-Jul-22 02:32N 51°57' E 004°11'0 0.0
2014-Jul-22 01:32N 51°57' E 004°11'0 0.0
2014-Jul-22 00:32N 51°57' E 004°11'0 0.0
2014-Jul-21 23:32N 51°57' E 004°11'0 0.0
2014-Jul-21 22:33N 51°57' E 004°11'2 1.9
2014-Jul-21 21:34N 51°58' E 004°09'7 6.8
2014-Jul-21 20:34N 51°54' E 004°17'2 7.0
2014-Jul-21 20:18N 51°54' E 004°20'1 1.2
2014-Jul-21 19:33N 51°54' E 004°22'0 0.0
2014-Jul-21 18:33N 51°54' E 004°22'0 0.0
2014-Jul-21 17:33N 51°54' E 004°22'0 0.0
2014-Jul-21 16:33N 51°54' E 004°22'0 0.0
2014-Jul-21 15:21N 51°54' E 004°22'0 0.0
2014-Jul-21 14:15N 51°54' E 004°22'0 0.0
2014-Jul-21 13:30N 51°54' E 004°22'0 0.0
2014-Jul-21 12:21N 51°54' E 004°22'0 0.0
2014-Jul-21 11:21N 51°54' E 004°22'0 0.0
2014-Jul-21 10:27N 51°54' E 004°22'0 0.0
2014-Jul-21 09:33N 51°54' E 004°22'0 0.0
2014-Jul-21 07:33N 51°54' E 004°22'0 0.0
2014-Jul-21 05:27N 51°54' E 004°22'0 0.0
2014-Jul-21 04:33N 51°54' E 004°22'0 0.0
2014-Jul-21 03:33N 51°54' E 004°22'0 0.0
2014-Jul-21 02:27N 51°54' E 004°22'0 0.0
2014-Jul-21 01:27N 51°54' E 004°22'0 0.0
2014-Jul-21 00:21N 51°54' E 004°22'1 1.7
2014-Jul-20 23:33N 51°54' E 004°20'10 9.9
2014-Jul-20 22:33N 51°59' E 004°06'1110.8
2014-Jul-20 21:33N 52°00' E 003°49'9 5.8
2014-Jul-20 20:04N 51°55' E 003°37'0 0.0
2014-Jul-20 13:31N 51°55' E 003°37'0 0.0
2014-Jul-20 08:04N 51°55' E 003°37'0 0.0
2014-Jul-20 07:22N 51°55' E 003°37'0 0.0
2014-Jul-20 06:31N 51°55' E 003°37'0 0.1
2014-Jul-20 05:28N 51°55' E 003°37'0 0.1
2014-Jul-20 04:31N 51°55' E 003°37'0 0.0
2014-Jul-20 03:28N 51°55' E 003°37'0 0.0
2014-Jul-20 02:16N 51°55' E 003°37'0 0.0
2014-Jul-20 01:28N 51°55' E 003°37'0 0.1
2014-Jul-19 23:31N 51°55' E 003°37'0 0.0
2014-Jul-19 22:25N 51°55' E 003°37'0 0.0
2014-Jul-19 20:16N 51°55' E 003°37'0 0.0
2014-Jul-19 18:22N 51°55' E 003°37'0 0.0
2014-Jul-19 17:31N 51°55' E 003°37'0 0.1
2014-Jul-19 16:25N 51°55' E 003°37'0 0.0
2014-Jul-19 15:28N 51°55' E 003°37'0 0.0
2014-Jul-19 12:13N 51°55' E 003°37'0 0.0
2014-Jul-19 10:33N 51°55' E 003°37'12 9.0
2014-Jul-19 09:11N 51°53' E 003°17'911.3
2014-Jul-19 08:26N 51°51' E 003°04'2611.7
2014-Jul-19 06:14N 51°39' E 002°28'912.6
2014-Jul-19 05:33N 51°32' E 002°19'1312.0
2014-Jul-19 04:28N 51°21' E 002°07'1111.6
2014-Jul-19 03:33N 51°12' E 001°59'1212.2
2014-Jul-19 02:33N 51°05' E 001°43'1111.2
2014-Jul-19 01:33N 50°56' E 001°31'10 9.6
2014-Jul-19 00:33N 50°48' E 001°25'9 9.2
2014-Jul-18 23:33N 50°40' E 001°19'9 9.5
2014-Jul-18 22:33N 50°33' E 001°07'9 9.2
2014-Jul-18 21:33N 50°28' E 000°56'9 9.4
2014-Jul-18 20:33N 50°25' E 000°42'10 9.5
2014-Jul-18 19:33N 50°23' E 000°27'12 9.8
2014-Jul-18 18:22N 50°20' E 000°09'810.1
2014-Jul-18 17:33N 50°18' W 000°03'1210.3
2014-Jul-18 16:21N 50°14' W 000°22'1311.2
2014-Jul-18 15:08N 50°11' W 000°42'5714.1
2014-Jul-18 11:06N 49°56' W 002°07'2512.8
2014-Jul-18 09:11N 49°49' W 002°44'811.7
2014-Jul-18 08:29N 49°47' W 002°56'  
Track history (hours):
 
Tides and Currents Weather Stations Pressure Air Temp Water Temp Dewpoint Dewpoint Depression Visibility Wind Speed Wind Dir Waves Ship Positions

Mt Bomar Mars

Last reported at 2014-Jul-28 05:25 UTC. Time now 2014-Jul-28 06:26 UTC.
Position N 57°56' E 011°22'.

Length 107 m; draft 5.4 m.

Type: Tanker. MMSI: 256784000.

Date/timePositionNaut miles runAvg speedWind from/ knotsBaromVisibWave heightAir tempDewpointWater temp
2014-Jul-28 05:25N 57°56' E 011°22'0 0.0
2014-Jul-28 04:25N 57°56' E 011°22'0 0.0
2014-Jul-28 03:25N 57°56' E 011°22'0 0.0
2014-Jul-28 02:28N 57°56' E 011°22'0 0.0
2014-Jul-28 01:25N 57°56' E 011°22'0 0.0
2014-Jul-28 00:31N 57°56' E 011°22'0 0.0
2014-Jul-27 23:31N 57°56' E 011°22'1 0.6
2014-Jul-27 22:33N 57°55' E 011°22'1211.8
2014-Jul-27 21:33N 57°44' E 011°24'1111.1
2014-Jul-27 20:34N 57°33' E 011°25'1010.2
2014-Jul-27 19:33N 57°23' E 011°29'9 9.5
2014-Jul-27 18:33N 57°14' E 011°35'9 9.1
2014-Jul-27 17:33N 57°05' E 011°41'9 9.1
2014-Jul-27 16:31N 56°56' E 011°46'9 9.6
2014-Jul-27 15:33N 56°47' E 011°52'9 9.3
2014-Jul-27 14:33N 56°39' E 011°46'10 9.9
2014-Jul-27 13:32N 56°30' E 011°37'9 9.7
2014-Jul-27 12:33N 56°22' E 011°28'10 9.9
2014-Jul-27 11:31N 56°13' E 011°19'7 7.5
2014-Jul-27 10:33N 56°07' E 011°11'10 9.6
2014-Jul-27 09:33N 55°59' E 011°02'1110.2
2014-Jul-27 08:30N 55°50' E 010°50'45 2.4
2014-Jul-26 13:12N 55°20' E 009°50'710.4
2014-Jul-26 12:34N 55°13' E 009°48'1111.4
2014-Jul-26 11:33N 55°03' E 009°54'1212.0
2014-Jul-26 10:33N 54°54' E 010°09'49 6.1
2014-Jul-26 02:30N 54°11' E 009°29'8 7.7
2014-Jul-26 01:30N 54°05' E 009°19'8 8.0
2014-Jul-26 00:33N 53°58' E 009°16'5 5.5
2014-Jul-25 23:34N 53°54' E 009°10'1 0.8
2014-Jul-25 22:33N 53°54' E 009°09'2 2.0
2014-Jul-25 21:33N 53°53' E 009°05'10 9.6
2014-Jul-25 20:34N 53°50' E 008°50'1312.7
2014-Jul-25 19:33N 53°58' E 008°32'1312.7
2014-Jul-25 18:33N 53°59' E 008°11'1212.5
2014-Jul-25 17:33N 53°57' E 007°50'1311.3
2014-Jul-25 16:24N 53°54' E 007°29'2010.6
2014-Jul-25 14:30N 53°49' E 006°55'1010.1
2014-Jul-25 13:33N 53°47' E 006°40'1010.1
2014-Jul-25 12:33N 53°44' E 006°23'1110.5
2014-Jul-25 11:33N 53°41' E 006°06'1110.8
2014-Jul-25 10:33N 53°38' E 005°49'1110.9
2014-Jul-25 09:33N 53°34' E 005°31'1111.5
2014-Jul-25 08:33N 53°31' E 005°13'1211.9
2014-Jul-25 07:33N 53°26' E 004°55'2210.6
2014-Jul-25 05:31N 53°10' E 004°32'1111.5
2014-Jul-25 04:33N 53°00' E 004°22'1211.8
2014-Jul-25 03:33N 52°50' E 004°13'1211.9
2014-Jul-25 02:33N 52°40' E 004°03'1211.8
2014-Jul-25 01:33N 52°29' E 003°55'1211.8
2014-Jul-25 00:33N 52°17' E 003°52'1111.1
2014-Jul-24 23:33N 52°06' E 003°54'9 8.8
2014-Jul-24 22:33N 51°59' E 004°03'6 5.6
2014-Jul-24 21:32N 51°56' E 004°11'0 0.0
2014-Jul-24 15:14N 51°56' E 004°11'0 0.0
2014-Jul-24 14:05N 51°56' E 004°11'0 0.0
2014-Jul-24 13:32N 51°56' E 004°11'0 0.0
2014-Jul-24 11:32N 51°56' E 004°11'0 0.0
2014-Jul-24 10:23N 51°56' E 004°11'0 0.0
2014-Jul-24 09:05N 51°56' E 004°11'0 0.0
2014-Jul-24 06:14N 51°56' E 004°11'0 0.0
2014-Jul-24 03:20N 51°56' E 004°11'0 0.0
2014-Jul-24 02:08N 51°56' E 004°11'0 0.1
2014-Jul-23 21:17N 51°57' E 004°11'0 0.0
2014-Jul-23 20:32N 51°57' E 004°11'0 0.0
2014-Jul-23 19:32N 51°57' E 004°11'0 0.0
2014-Jul-23 18:29N 51°57' E 004°11'0 0.0
2014-Jul-23 17:32N 51°57' E 004°11'0 0.0
2014-Jul-23 16:32N 51°57' E 004°11'0 0.0
2014-Jul-23 15:29N 51°57' E 004°11'0 0.0
2014-Jul-23 14:32N 51°57' E 004°11'0 0.0
2014-Jul-23 13:32N 51°57' E 004°11'0 0.0
2014-Jul-23 12:32N 51°57' E 004°11'0 0.0
2014-Jul-23 11:32N 51°57' E 004°11'0 0.0
2014-Jul-23 10:23N 51°57' E 004°11'0 0.0
2014-Jul-23 09:32N 51°57' E 004°11'0 0.0
2014-Jul-23 08:32N 51°57' E 004°11'0 0.0
2014-Jul-23 07:32N 51°57' E 004°11'0 0.0
2014-Jul-23 06:29N 51°57' E 004°11'0 0.0
2014-Jul-23 05:32N 51°57' E 004°11'0 0.0
2014-Jul-23 04:29N 51°57' E 004°11'0 0.0
2014-Jul-23 03:32N 51°57' E 004°11'0 0.0
2014-Jul-23 02:32N 51°57' E 004°11'0 0.0
2014-Jul-23 01:32N 51°57' E 004°11'0 0.0
2014-Jul-23 00:32N 51°57' E 004°11'0 0.0
2014-Jul-22 23:32N 51°57' E 004°11'0 0.0
2014-Jul-22 22:32N 51°57' E 004°11'0 0.0
2014-Jul-22 21:32N 51°57' E 004°11'0 0.0
2014-Jul-22 20:29N 51°57' E 004°11'0 0.0
2014-Jul-22 19:29N 51°57' E 004°11'0 0.0
2014-Jul-22 18:32N 51°57' E 004°11'0 0.0
2014-Jul-22 17:26N 51°57' E 004°11'0 0.0
2014-Jul-22 16:32N 51°57' E 004°11'0 0.0
2014-Jul-22 15:29N 51°57' E 004°11'0 0.0
2014-Jul-22 14:32N 51°57' E 004°11'0 0.0
2014-Jul-22 13:20N 51°57' E 004°11'0 0.0
2014-Jul-22 12:32N 51°57' E 004°11'0 0.0
2014-Jul-22 11:29N 51°57' E 004°11'0 0.0
2014-Jul-22 10:32N 51°57' E 004°11'0 0.0
2014-Jul-22 09:29N 51°57' E 004°11'0 0.0
2014-Jul-22 08:32N 51°57' E 004°11'0 0.0
2014-Jul-22 07:29N 51°57' E 004°11'0 0.0
2014-Jul-22 06:32N 51°57' E 004°11'0 0.0
2014-Jul-22 05:32N 51°57' E 004°11'0 0.0
2014-Jul-22 04:29N 51°57' E 004°11'0 0.0
2014-Jul-22 03:32N 51°57' E 004°11'0 0.0
2014-Jul-22 02:32N 51°57' E 004°11'0 0.0
2014-Jul-22 01:32N 51°57' E 004°11'0 0.0
2014-Jul-22 00:32N 51°57' E 004°11'0 0.0
2014-Jul-21 23:32N 51°57' E 004°11'0 0.0
2014-Jul-21 22:33N 51°57' E 004°11'2 1.9
2014-Jul-21 21:34N 51°58' E 004°09'7 6.8
2014-Jul-21 20:34N 51°54' E 004°17'2 7.0
2014-Jul-21 20:18N 51°54' E 004°20'1 1.2
2014-Jul-21 19:33N 51°54' E 004°22'0 0.0
2014-Jul-21 18:33N 51°54' E 004°22'0 0.0
2014-Jul-21 17:33N 51°54' E 004°22'0 0.0
2014-Jul-21 16:33N 51°54' E 004°22'0 0.0
2014-Jul-21 15:21N 51°54' E 004°22'0 0.0
2014-Jul-21 14:15N 51°54' E 004°22'0 0.0
2014-Jul-21 13:30N 51°54' E 004°22'0 0.0
2014-Jul-21 12:21N 51°54' E 004°22'0 0.0
2014-Jul-21 11:21N 51°54' E 004°22'0 0.0
2014-Jul-21 10:27N 51°54' E 004°22'0 0.0
2014-Jul-21 09:33N 51°54' E 004°22'0 0.0
2014-Jul-21 07:33N 51°54' E 004°22'0 0.0
2014-Jul-21 05:27N 51°54' E 004°22'0 0.0
2014-Jul-21 04:33N 51°54' E 004°22'0 0.0
2014-Jul-21 03:33N 51°54' E 004°22'0 0.0
2014-Jul-21 02:27N 51°54' E 004°22'0 0.0
2014-Jul-21 01:27N 51°54' E 004°22'0 0.0
2014-Jul-21 00:21N 51°54' E 004°22'1 1.7
2014-Jul-20 23:33N 51°54' E 004°20'10 9.9
2014-Jul-20 22:33N 51°59' E 004°06'1110.8
2014-Jul-20 21:33N 52°00' E 003°49'9 5.8
2014-Jul-20 20:04N 51°55' E 003°37'0 0.0
2014-Jul-20 13:31N 51°55' E 003°37'0 0.0
2014-Jul-20 08:04N 51°55' E 003°37'0 0.0
2014-Jul-20 07:22N 51°55' E 003°37'0 0.0
2014-Jul-20 06:31N 51°55' E 003°37'0 0.1
2014-Jul-20 05:28N 51°55' E 003°37'0 0.1
2014-Jul-20 04:31N 51°55' E 003°37'0 0.0
2014-Jul-20 03:28N 51°55' E 003°37'0 0.0
2014-Jul-20 02:16N 51°55' E 003°37'0 0.0
2014-Jul-20 01:28N 51°55' E 003°37'0 0.1
2014-Jul-19 23:31N 51°55' E 003°37'0 0.0
2014-Jul-19 22:25N 51°55' E 003°37'0 0.0
2014-Jul-19 20:16N 51°55' E 003°37'0 0.0
2014-Jul-19 18:22N 51°55' E 003°37'0 0.0
2014-Jul-19 17:31N 51°55' E 003°37'0 0.1
2014-Jul-19 16:25N 51°55' E 003°37'0 0.0
2014-Jul-19 15:28N 51°55' E 003°37'0 0.0
2014-Jul-19 12:13N 51°55' E 003°37'0 0.0
2014-Jul-19 10:33N 51°55' E 003°37'12 9.0
2014-Jul-19 09:11N 51°53' E 003°17'911.3
2014-Jul-19 08:26N 51°51' E 003°04'2611.7
2014-Jul-19 06:14N 51°39' E 002°28'912.6
2014-Jul-19 05:33N 51°32' E 002°19'1312.0
2014-Jul-19 04:28N 51°21' E 002°07'1111.6
2014-Jul-19 03:33N 51°12' E 001°59'1212.2
2014-Jul-19 02:33N 51°05' E 001°43'1111.2
2014-Jul-19 01:33N 50°56' E 001°31'10 9.6
2014-Jul-19 00:33N 50°48' E 001°25'9 9.2
2014-Jul-18 23:33N 50°40' E 001°19'9 9.5
2014-Jul-18 22:33N 50°33' E 001°07'9 9.2
2014-Jul-18 21:33N 50°28' E 000°56'9 9.4
2014-Jul-18 20:33N 50°25' E 000°42'10 9.5
2014-Jul-18 19:33N 50°23' E 000°27'12 9.8
2014-Jul-18 18:22N 50°20' E 000°09'810.1
2014-Jul-18 17:33N 50°18' W 000°03'1210.3
2014-Jul-18 16:21N 50°14' W 000°22'1311.2
2014-Jul-18 15:08N 50°11' W 000°42'5714.1
2014-Jul-18 11:06N 49°56' W 002°07'2512.8
2014-Jul-18 09:11N 49°49' W 002°44'811.7
2014-Jul-18 08:29N 49°47' W 002°56'  

Dump ship's entire track history